createdAt,value
2018-07-06T06:09:04.382Z,16.57
2018-07-06T06:11:39.402Z,15.70
2018-07-06T06:14:14.359Z,17.40
2018-07-06T06:16:48.536Z,17.93
2018-07-06T06:19:24.778Z,17.20
2018-07-06T06:21:54.427Z,17.40
2018-07-06T06:24:24.363Z,16.80
2018-07-06T06:26:53.304Z,16.07
2018-07-06T06:29:23.292Z,15.57
2018-07-06T06:31:53.943Z,15.63
2018-07-06T06:34:24.161Z,15.80
2018-07-06T06:36:54.763Z,14.77
2018-07-06T06:39:24.571Z,16.23
2018-07-06T06:41:54.237Z,16.23
2018-07-06T06:44:24.638Z,15.60
2018-07-06T06:46:55.126Z,15.37
2018-07-06T06:49:25.343Z,15.40
2018-07-06T06:51:55.897Z,16.07
2018-07-06T06:54:26.283Z,16.40
2018-07-06T06:56:55.827Z,16.27
2018-07-06T06:59:25.090Z,15.70
2018-07-06T07:01:54.601Z,16.07
2018-07-06T07:04:25.053Z,15.07
2018-07-06T07:06:55.745Z,14.20
2018-07-06T07:09:25.539Z,14.57
2018-07-06T07:11:55.493Z,15.10
2018-07-06T07:14:25.295Z,14.60
2018-07-06T07:16:55.227Z,15.20
2018-07-06T07:19:25.192Z,14.23
2018-07-06T07:21:56.793Z,15.40
2018-07-06T07:24:27.575Z,14.37
2018-07-06T07:26:58.835Z,17.15
2018-07-06T07:29:28.828Z,16.03
2018-07-06T07:31:59.362Z,17.20
2018-07-06T07:34:29.426Z,15.87
2018-07-06T07:36:59.109Z,17.07
2018-07-06T07:39:28.987Z,16.70
2018-07-06T07:41:59.657Z,17.03
2018-07-06T07:44:29.518Z,16.53
2018-07-06T07:46:59.207Z,17.40
2018-07-06T07:49:28.363Z,17.43
2018-07-06T07:52:09.980Z,15.80
2018-07-06T07:54:59.859Z,15.93
2018-07-06T07:57:29.672Z,15.80
2018-07-06T08:00:00.281Z,16.00
2018-07-06T08:02:30.683Z,16.03
2018-07-06T08:05:00.826Z,14.70
2018-07-06T08:07:31.302Z,15.10
2018-07-06T08:10:01.204Z,14.17
2018-07-06T08:12:31.802Z,15.03
2018-07-06T08:15:01.474Z,15.67
2018-07-06T08:17:31.284Z,15.43
2018-07-06T08:20:01.115Z,15.37
2018-07-06T08:22:31.855Z,15.90
2018-07-06T08:25:01.578Z,15.10
2018-07-06T08:27:31.642Z,14.70
2018-07-06T08:30:01.448Z,15.17
2018-07-06T08:32:31.369Z,15.80
2018-07-06T08:36:13.924Z,14.27
2018-07-06T08:38:43.750Z,16.63
2018-07-06T08:41:14.068Z,15.33
2018-07-06T08:43:43.646Z,15.77
2018-07-06T08:46:13.696Z,14.77
2018-07-06T08:48:44.046Z,14.77
2018-07-06T08:51:16.349Z,13.03
2018-07-06T08:53:47.365Z,14.03
2018-07-06T08:56:18.377Z,12.63
2018-07-06T08:58:48.769Z,12.83
2018-07-06T09:01:18.902Z,13.40
2018-07-06T09:03:48.740Z,12.73
2018-07-06T09:06:18.891Z,13.00
2018-07-06T09:08:48.702Z,13.03
2018-07-06T09:11:18.429Z,12.33
2018-07-06T09:13:49.781Z,11.97
2018-07-06T09:16:19.559Z,12.63
2018-07-06T09:18:49.905Z,11.60
2018-07-06T09:21:20.398Z,12.90
2018-07-06T09:23:50.316Z,12.60
2018-07-06T09:26:19.592Z,13.20
2018-07-06T09:28:49.667Z,14.87
2018-07-06T09:31:20.079Z,13.17
2018-07-06T09:33:50.712Z,12.37
2018-07-06T09:36:20.392Z,12.47
2018-07-06T09:38:49.976Z,11.47
2018-07-06T09:41:20.186Z,11.17
2018-07-06T09:43:50.876Z,12.90
2018-07-06T09:46:20.736Z,12.00
2018-07-06T09:48:50.684Z,12.83
2018-07-06T09:51:20.440Z,12.23
2018-07-06T09:53:51.151Z,12.50
2018-07-06T09:56:21.644Z,12.00
2018-07-06T09:58:51.440Z,11.65
2018-07-06T10:01:23.569Z,11.12
2018-07-06T10:03:55.266Z,12.68
2018-07-06T10:06:25.686Z,11.15
2018-07-06T10:08:55.672Z,11.05
2018-07-06T10:11:24.950Z,9.83
2018-07-06T10:13:54.345Z,10.78
2018-07-06T10:16:24.544Z,10.00
2018-07-06T10:18:54.400Z,9.88
2018-07-06T10:21:24.186Z,11.38
2018-07-06T10:23:53.695Z,11.57
2018-07-06T10:26:23.927Z,10.68
2018-07-06T10:28:59.916Z,10.65
2018-07-06T10:32:33.225Z,9.98
2018-07-06T10:35:03.008Z,9.05
2018-07-06T10:37:32.543Z,9.25
2018-07-06T10:40:02.322Z,7.78
2018-07-06T10:42:31.659Z,8.58
2018-07-06T10:45:01.155Z,9.63
2018-07-06T10:47:31.244Z,7.87
2018-07-06T10:50:01.909Z,9.80
2018-07-06T10:52:30.953Z,8.83
2018-07-06T10:55:00.139Z,8.60
2018-07-06T10:57:30.384Z,9.78
2018-07-06T10:59:59.895Z,9.00
2018-07-06T11:02:29.083Z,10.20
2018-07-06T11:04:58.033Z,9.20
2018-07-06T11:07:28.519Z,9.78
2018-07-06T11:09:57.514Z,6.92
2018-07-06T11:12:26.587Z,9.28
2018-07-06T11:14:56.451Z,8.15
2018-07-06T11:17:25.706Z,11.53
2018-07-06T11:19:54.613Z,9.05
2018-07-06T11:22:23.516Z,9.30
2018-07-06T11:24:52.850Z,9.58
2018-07-06T11:27:22.014Z,9.00
2018-07-06T11:29:51.120Z,12.25
2018-07-06T11:32:20.213Z,11.05
2018-07-06T11:34:49.168Z,8.70
2018-07-06T11:37:18.320Z,8.38
2018-07-06T11:39:48.410Z,8.18
2018-07-06T11:42:18.142Z,9.15
2018-07-06T11:44:47.616Z,9.35
2018-07-06T11:47:17.362Z,10.60
2018-07-06T11:49:47.550Z,7.10
2018-07-06T11:52:17.396Z,8.45
2018-07-06T11:54:47.316Z,9.83
2018-07-06T11:57:16.916Z,7.22
2018-07-06T11:59:47.044Z,7.87
2018-07-06T12:02:17.508Z,7.12
2018-07-06T12:04:47.148Z,5.95
2018-07-06T12:07:17.361Z,4.85
2018-07-06T12:09:47.766Z,5.92
2018-07-06T12:12:17.180Z,5.03
2018-07-06T12:14:46.631Z,7.97
2018-07-06T12:17:16.517Z,7.15
2018-07-06T12:19:47.041Z,5.97
2018-07-06T12:22:16.755Z,5.53
2018-07-06T12:24:46.246Z,6.37
2018-07-06T12:27:16.191Z,6.55
2018-07-06T12:29:46.103Z,4.78
2018-07-06T12:32:16.221Z,7.50
2018-07-06T12:34:45.795Z,7.80
2018-07-06T12:37:15.447Z,6.20
2018-07-06T12:39:46.109Z,5.50
2018-07-06T12:42:15.793Z,5.25
2018-07-06T12:47:49.037Z,5.40
2018-07-06T12:50:19.031Z,5.67
2018-07-06T12:52:48.679Z,5.83
2018-07-06T12:55:20.987Z,6.67
2018-07-06T12:57:51.461Z,5.85
2018-07-06T13:00:23.215Z,5.35
2018-07-06T13:02:54.950Z,5.72
2018-07-06T13:05:24.598Z,5.60
2018-07-06T13:07:54.261Z,5.55
2018-07-06T13:10:23.740Z,5.28
2018-07-06T13:12:53.668Z,5.62
2018-07-06T13:15:23.197Z,6.40
2018-07-06T13:17:52.964Z,6.28
2018-07-06T13:20:22.313Z,6.03
2018-07-06T13:22:52.200Z,5.60
2018-07-06T13:25:21.873Z,5.95
2018-07-06T13:27:56.732Z,7.05
2018-07-06T13:30:26.211Z,6.58
2018-07-06T13:32:56.497Z,7.30
2018-07-06T13:35:26.646Z,7.42
2018-07-06T13:37:55.892Z,7.28
2018-07-06T13:40:25.241Z,5.87
2018-07-06T13:42:54.874Z,5.67
2018-07-06T13:45:24.254Z,5.60
2018-07-06T13:47:53.928Z,5.60
2018-07-06T13:50:26.858Z,5.72
2018-07-06T13:52:56.985Z,6.83
2018-07-06T13:55:27.393Z,5.95
2018-07-06T13:57:56.781Z,5.45
2018-07-06T14:00:27.670Z,6.50
2018-07-06T14:02:57.735Z,5.53
2018-07-06T14:05:28.354Z,5.25
2018-07-06T14:07:57.844Z,5.40
2018-07-06T14:10:27.298Z,5.45
2018-07-06T14:12:57.084Z,4.95
2018-07-06T14:15:26.680Z,6.05
2018-07-06T14:17:57.919Z,4.58
2018-07-06T14:20:28.300Z,6.25
2018-07-06T14:22:57.955Z,6.10
2018-07-06T14:25:28.391Z,5.15
2018-07-06T14:27:58.105Z,5.22
2018-07-06T14:30:27.881Z,5.00
2018-07-06T14:32:58.257Z,4.92
2018-07-06T14:35:28.345Z,4.58
2018-07-06T14:37:58.623Z,4.78
2018-07-06T14:40:29.333Z,4.42
2018-07-06T14:42:59.787Z,4.40
2018-07-06T14:45:30.543Z,3.77
2018-07-06T14:48:00.476Z,7.10
2018-07-06T14:50:29.789Z,4.08
2018-07-06T14:52:58.929Z,4.40
2018-07-06T14:55:28.955Z,4.00
2018-07-06T14:57:59.999Z,3.92
2018-07-06T15:00:31.517Z,4.00
2018-07-06T15:03:01.584Z,4.17
2018-07-06T15:05:32.365Z,4.30
2018-07-06T15:08:03.434Z,3.92
2018-07-06T15:10:34.291Z,4.95
2018-07-06T15:13:04.443Z,4.47
2018-07-06T15:15:35.013Z,4.67
2018-07-06T15:18:12.347Z,5.10
2018-07-06T15:20:46.839Z,5.78
2018-07-06T15:23:20.178Z,6.12
2018-07-06T15:25:51.579Z,5.95
2018-07-06T15:28:23.078Z,6.60
2018-07-06T15:30:52.996Z,6.47
2018-07-06T15:33:39.070Z,6.60
2018-07-06T15:36:10.613Z,6.90
2018-07-06T15:38:40.562Z,6.78
2018-07-06T15:41:12.748Z,6.25
2018-07-06T15:43:42.698Z,5.58
2018-07-06T15:46:12.682Z,6.12
2018-07-06T15:48:45.666Z,5.45
2018-07-06T15:51:20.130Z,5.87
2018-07-06T15:53:52.580Z,5.53
2018-07-06T15:56:25.830Z,6.05
2018-07-06T15:58:55.796Z,4.55
2018-07-06T16:01:25.585Z,5.22
2018-07-06T16:03:54.968Z,5.22
2018-07-06T16:06:24.470Z,4.95
2018-07-06T16:08:57.590Z,5.40
2018-07-06T16:11:41.117Z,5.30
2018-07-06T16:14:17.230Z,5.35
2018-07-06T16:16:51.652Z,5.60
2018-07-06T16:19:32.250Z,5.50
2018-07-06T16:22:05.220Z,5.12
2018-07-06T16:24:36.914Z,5.12
2018-07-06T16:27:07.507Z,5.22
2018-07-06T16:29:44.145Z,5.45
2018-07-06T16:32:22.640Z,5.70
2018-07-06T16:35:04.826Z,5.05
2018-07-06T16:37:35.596Z,5.67
2018-07-06T16:40:05.353Z,5.37
2018-07-06T16:42:34.790Z,5.72
2018-07-06T16:45:04.827Z,6.22
2018-07-06T16:47:41.376Z,6.10
2018-07-06T16:50:14.561Z,6.10
2018-07-06T16:52:43.969Z,6.03
2018-07-06T16:55:14.230Z,6.33
2018-07-06T16:57:43.595Z,5.17
2018-07-06T17:00:13.013Z,5.58
2018-07-06T17:02:42.197Z,6.08
2018-07-06T17:05:11.701Z,6.78
2018-07-06T17:07:41.026Z,5.70
2018-07-06T17:10:10.383Z,5.83
2018-07-06T17:12:39.984Z,7.65
2018-07-06T17:15:09.759Z,5.85
2018-07-06T17:17:40.471Z,6.30
2018-07-06T17:20:09.843Z,6.70
2018-07-06T17:22:39.078Z,6.62
2018-07-06T17:25:09.727Z,6.62
2018-07-06T17:27:39.217Z,6.40
2018-07-06T17:30:08.981Z,5.73
2018-07-06T17:32:39.888Z,7.10
2018-07-06T17:35:10.133Z,6.43
2018-07-06T17:37:39.919Z,7.00
2018-07-06T17:40:09.720Z,7.00
2018-07-06T17:42:39.777Z,6.03
2018-07-06T17:45:09.268Z,7.23
2018-07-06T17:47:38.942Z,6.70
2018-07-06T17:50:08.511Z,5.90
2018-07-06T17:52:38.596Z,6.50
2018-07-06T17:55:08.246Z,6.67
2018-07-06T17:57:37.811Z,6.70
2018-07-06T18:00:07.976Z,6.47
2018-07-06T18:02:37.619Z,6.97
2018-07-06T18:05:07.410Z,6.90
2018-07-06T18:07:36.947Z,7.00
2018-07-06T18:10:07.126Z,6.57
2018-07-06T18:12:37.238Z,7.07
2018-07-06T18:15:07.421Z,7.00
2018-07-06T18:17:37.428Z,8.03
2018-07-06T18:20:07.257Z,7.20
2018-07-06T18:22:36.753Z,7.20
2018-07-06T18:25:06.806Z,7.63
2018-07-06T18:27:36.968Z,7.13
2018-07-06T18:30:07.069Z,7.53
2018-07-06T18:32:36.410Z,7.90
2018-07-06T18:35:06.547Z,9.13
2018-07-06T18:37:36.147Z,7.80
2018-07-06T18:40:06.836Z,7.83
2018-07-06T18:42:38.376Z,7.73
2018-07-06T18:45:11.491Z,8.27
2018-07-06T18:47:42.592Z,8.63
2018-07-06T18:50:12.030Z,9.60
2018-07-06T18:52:41.724Z,9.30
2018-07-06T18:55:11.259Z,9.30
2018-07-06T18:57:42.587Z,8.33
2018-07-06T19:00:12.397Z,7.10
2018-07-06T19:02:42.874Z,8.30
2018-07-06T19:05:12.861Z,8.27
2018-07-06T19:07:42.557Z,8.23
2018-07-06T19:10:12.150Z,8.13
2018-07-06T19:12:41.841Z,8.77
2018-07-06T19:15:11.504Z,7.63
2018-07-06T19:17:41.863Z,7.67
2018-07-06T19:20:11.747Z,7.50
2018-07-06T19:22:47.129Z,7.97
2018-07-06T19:25:17.292Z,9.17
2018-07-06T19:27:46.386Z,8.80
2018-07-06T19:30:15.668Z,8.53
2018-07-06T19:32:45.462Z,8.67
2018-07-06T19:35:15.304Z,8.57
2018-07-06T19:37:45.496Z,10.00
2018-07-06T19:40:14.384Z,10.80
2018-07-06T19:42:43.777Z,10.70
2018-07-06T19:45:13.320Z,10.90
2018-07-06T19:47:42.420Z,10.53
2018-07-06T19:50:12.720Z,11.07
2018-07-06T19:52:42.117Z,11.53
2018-07-06T19:55:12.200Z,12.80
2018-07-06T19:57:41.805Z,13.73
2018-07-06T20:00:10.764Z,15.03
2018-07-06T20:02:41.127Z,15.00
2018-07-06T20:05:11.188Z,15.43
2018-07-06T20:07:41.047Z,16.37
2018-07-06T20:10:12.753Z,17.10
2018-07-06T20:12:42.525Z,17.23
2018-07-06T20:15:13.478Z,18.87
2018-07-06T20:17:43.780Z,19.20
2018-07-06T20:20:14.743Z,19.27
2018-07-06T20:22:44.890Z,19.43
2018-07-06T20:25:15.185Z,20.07
2018-07-06T20:27:45.264Z,19.10
2018-07-06T20:30:14.913Z,19.33
2018-07-06T20:32:44.355Z,20.10
2018-07-06T20:35:13.855Z,19.00
2018-07-06T20:37:44.471Z,20.10
2018-07-06T20:40:14.077Z,19.77
2018-07-06T20:42:44.213Z,18.20
2018-07-06T20:45:13.707Z,19.33
2018-07-06T20:47:43.243Z,18.27
2018-07-06T20:50:12.590Z,18.17
2018-07-06T20:52:42.117Z,18.43
2018-07-06T20:55:11.663Z,18.53
2018-07-06T20:57:41.275Z,18.73
2018-07-06T21:00:10.669Z,18.23
2018-07-06T21:02:40.358Z,18.93
2018-07-06T21:05:09.923Z,18.70
2018-07-06T21:07:39.543Z,16.97
2018-07-06T21:10:09.449Z,17.70
2018-07-06T21:12:38.889Z,17.13
2018-07-06T21:15:08.659Z,18.90
2018-07-06T21:17:38.259Z,17.70
2018-07-06T21:20:07.926Z,18.70
2018-07-06T21:22:38.164Z,17.03
2018-07-06T21:25:09.850Z,18.33
2018-07-06T21:27:39.515Z,16.97
2018-07-06T21:30:08.949Z,16.97
2018-07-06T21:32:39.052Z,16.70
2018-07-06T21:35:08.748Z,17.20
2018-07-06T21:37:38.378Z,16.33
2018-07-06T21:40:07.858Z,17.43
2018-07-06T21:42:37.265Z,16.53
2018-07-06T21:45:07.089Z,17.10
2018-07-06T21:47:37.306Z,16.97
2018-07-06T21:50:07.046Z,15.93
2018-07-06T21:52:36.940Z,15.47
2018-07-06T21:55:06.370Z,16.03
2018-07-06T21:57:35.770Z,16.37
2018-07-06T22:00:05.378Z,14.70
2018-07-06T22:02:35.090Z,15.03
2018-07-06T22:05:04.777Z,15.07
2018-07-06T22:07:34.216Z,14.57
2018-07-06T22:10:06.264Z,13.55
2018-07-06T22:12:36.505Z,14.03
2018-07-06T22:15:06.217Z,13.70
2018-07-06T22:17:35.726Z,13.03
2018-07-06T22:20:06.153Z,13.37
2018-07-06T22:22:35.602Z,13.80
2018-07-06T22:25:04.946Z,14.35
2018-07-06T22:27:34.605Z,13.47
2018-07-06T22:30:04.944Z,14.47
2018-07-06T22:32:34.267Z,14.10
2018-07-06T22:35:03.354Z,13.83
2018-07-06T22:37:32.597Z,14.77
2018-07-06T22:40:02.361Z,14.60
2018-07-06T22:42:32.295Z,15.33
2018-07-06T22:45:01.797Z,16.73
2018-07-06T22:47:31.321Z,16.83
2018-07-06T22:50:00.744Z,16.57
2018-07-06T22:52:30.752Z,17.00
2018-07-06T22:55:00.238Z,15.83
2018-07-06T22:57:29.585Z,16.10
2018-07-06T22:59:59.311Z,17.57
2018-07-06T23:02:29.065Z,16.53
2018-07-06T23:04:58.561Z,18.47
2018-07-06T23:07:29.223Z,18.80
2018-07-06T23:10:00.006Z,19.03
2018-07-06T23:12:29.393Z,19.67
2018-07-06T23:14:59.104Z,17.60
2018-07-06T23:17:29.192Z,19.00
2018-07-06T23:19:58.949Z,18.23
2018-07-06T23:23:07.957Z,17.77
2018-07-06T23:25:39.100Z,16.03
2018-07-06T23:28:08.624Z,16.90
2018-07-06T23:30:38.090Z,17.33
2018-07-06T23:33:08.920Z,16.57
2018-07-06T23:35:38.608Z,17.10
2018-07-06T23:38:08.982Z,17.03
2018-07-06T23:40:38.397Z,16.57
2018-07-06T23:43:07.813Z,15.83
2018-07-06T23:45:37.461Z,14.45
2018-07-06T23:48:07.085Z,14.97
2018-07-06T23:50:36.726Z,15.77
2018-07-06T23:53:06.445Z,13.43
2018-07-06T23:55:36.594Z,16.45
2018-07-06T23:58:06.309Z,14.93
